Time;durP1;ratioP1;P1;durP2;ratioP2;P2;SDS_P1;SDS_P2;PMS_P1;PMS_P2;Temp;Humidity;BMP_temperature;BMP_pressure;BME280_temperature;BME280_humidity;BME280_pressure;Samples;Min_cycle;Max_cycle;Signal;HPM_P1;HPM_P2
2022/01/15 00:01:30;;;;;;;7.67;4.50;;;21.00;45.50;;;;;;5048478;27;91264;-64
2022/01/15 00:03:58;;;;;;;6.37;4.63;;;20.90;45.40;;;;;;5048338;27;88485;-63
2022/01/15 00:06:26;;;;;;;6.93;4.37;;;21.00;45.50;;;;;;5063378;27;88531;-63
2022/01/15 00:08:54;;;;;;;8.97;4.63;;;20.90;45.40;;;;;;5057947;27;90633;-63
2022/01/15 00:11:22;;;;;;;7.17;4.47;;;20.90;45.30;;;;;;5042526;28;91459;-64
2022/01/15 00:13:55;;;;;;;6.77;4.00;;;20.90;45.40;;;;;;5059281;27;88467;-63
2022/01/15 00:16:31;;;;;;;6.13;4.20;;;20.90;45.40;;;;;;5061669;27;88474;-64
2022/01/15 00:19:05;;;;;;;6.97;3.93;;;20.90;45.30;;;;;;5057779;27;93416;-64
2022/01/15 00:21:33;;;;;;;6.70;4.77;;;20.90;45.40;;;;;;5063362;27;91285;-63
2022/01/15 00:24:02;;;;;;;6.00;4.20;;;20.90;45.30;;;;;;5053315;27;88537;-64
2022/01/15 00:26:30;;;;;;;5.43;3.97;;;20.80;45.30;;;;;;5053593;27;88589;-63
2022/01/15 00:28:58;;;;;;;5.87;3.97;;;20.80;45.30;;;;;;5045046;27;90575;-64
2022/01/15 00:31:27;;;;;;;6.97;4.50;;;20.80;45.90;;;;;;5048251;27;90287;-64
2022/01/15 00:33:58;;;;;;;9.23;5.27;;;20.80;45.30;;;;;;5062700;27;88510;-63
2022/01/15 00:36:26;;;;;;;9.17;4.83;;;20.80;45.30;;;;;;5044342;27;88364;-63
2022/01/15 00:38:54;;;;;;;6.20;4.53;;;20.80;45.30;;;;;;5042206;27;89719;-63
2022/01/15 00:41:22;;;;;;;9.07;5.60;;;20.80;45.30;;;;;;5043519;27;90475;-63
2022/01/15 00:43:50;;;;;;;6.67;4.37;;;20.80;45.30;;;;;;5048069;27;88500;-63
2022/01/15 00:46:18;;;;;;;6.17;4.23;;;20.80;45.30;;;;;;5062689;27;88726;-63
2022/01/15 00:48:48;;;;;;;7.00;4.10;;;20.70;45.20;;;;;;5060767;27;90715;-63
2022/01/15 00:51:16;;;;;;;5.93;4.13;;;20.70;45.20;;;;;;5063327;27;88882;-63
2022/01/15 00:53:44;;;;;;;7.07;4.50;;;20.70;45.20;;;;;;5056718;27;88325;-63
2022/01/15 00:56:12;;;;;;;7.50;4.87;;;20.70;45.20;;;;;;5046369;27;88834;-63
2022/01/15 00:58:40;;;;;;;8.27;4.73;;;20.70;45.20;;;;;;5050717;27;92578;-64
2022/01/15 01:01:08;;;;;;;8.33;5.27;;;20.70;45.20;;;;;;5060933;27;89042;-63
2022/01/15 01:03:36;;;;;;;8.67;5.03;;;20.70;45.20;;;;;;5062041;27;88383;-63
2022/01/15 01:06:06;;;;;;;7.10;4.67;;;20.70;45.30;;;;;;5061738;27;88638;-64
2022/01/15 01:08:34;;;;;;;8.67;5.10;;;20.70;45.20;;;;;;5060555;27;92471;-64
2022/01/15 01:11:10;;;;;;;5.17;4.20;;;20.60;45.10;;;;;;5061801;27;92506;-63
2022/01/15 01:20:03;;;;;;;7.77;5.20;;;20.60;45.10;;;;;;5052798;27;88515;-63
2022/01/15 01:24:48;;;;;;;6.50;4.17;;;20.60;45.10;;;;;;5041462;27;88545;-63
2022/01/15 01:27:22;;;;;;;6.47;3.77;;;20.60;45.20;;;;;;5042212;28;88257;-63
2022/01/15 01:30:09;;;;;;;7.17;4.20;;;20.60;45.20;;;;;;5055756;27;92967;-63
2022/01/15 01:32:45;;;;;;;7.77;4.47;;;20.60;45.20;;;;;;5050162;27;92211;-64
2022/01/15 01:35:18;;;;;;;7.27;4.53;;;20.50;45.10;;;;;;5042238;27;88353;-64
2022/01/15 01:37:51;;;;;;;6.27;4.57;;;20.50;45.10;;;;;;5044897;27;88499;-63
2022/01/15 01:40:23;;;;;;;9.80;5.80;;;20.50;45.10;;;;;;5049723;27;89601;-63
2022/01/15 01:43:01;;;;;;;8.77;5.33;;;20.50;45.10;;;;;;5041658;28;88838;-64
2022/01/15 01:45:29;;;;;;;8.83;4.67;;;20.50;45.10;;;;;;5042248;27;88607;-64
2022/01/15 01:47:57;;;;;;;6.63;4.50;;;20.50;45.10;;;;;;5041884;27;88392;-64
2022/01/15 01:50:26;;;;;;;9.10;5.43;;;20.50;45.20;;;;;;5050647;27;90760;-63
2022/01/15 01:52:56;;;;;;;7.93;5.13;;;20.40;45.10;;;;;;5055177;27;90102;-64
2022/01/15 01:55:26;;;;;;;9.07;4.97;;;20.40;45.10;;;;;;5042641;27;88411;-63
2022/01/15 01:57:55;;;;;;;8.03;5.27;;;20.40;45.10;;;;;;5042099;27;88809;-63
2022/01/15 02:00:24;;;;;;;7.10;4.63;;;20.40;45.10;;;;;;5049926;27;90683;-63
2022/01/15 02:02:52;;;;;;;8.13;4.67;;;20.40;45.00;;;;;;5059553;27;89148;-63
2022/01/15 02:05:21;;;;;;;8.30;4.50;;;20.50;45.10;;;;;;5060339;27;88358;-63
2022/01/15 02:07:49;;;;;;;6.60;5.07;;;20.40;45.10;;;;;;5049328;27;88715;-64
2022/01/15 02:10:19;;;;;;;8.13;4.73;;;20.40;45.10;;;;;;5060822;27;89976;-64
2022/01/15 02:12:50;;;;;;;6.90;4.53;;;20.40;45.10;;;;;;5050645;27;90275;-63
2022/01/15 02:15:19;;;;;;;6.37;4.63;;;20.40;45.00;;;;;;5040804;27;88555;-64
2022/01/15 02:17:47;;;;;;;7.27;4.00;;;20.40;45.00;;;;;;5057044;27;88660;-63
2022/01/15 02:20:35;;;;;;;7.77;5.00;;;20.40;45.00;;;;;;5041016;27;89291;-64
2022/01/15 02:25:50;;;;;;;6.90;4.70;;;20.30;45.00;;;;;;5045854;27;88402;-64
2022/01/15 02:28:19;;;;;;;6.83;4.67;;;20.30;45.00;;;;;;5060453;27;88624;-63
2022/01/15 02:30:51;;;;;;;6.90;4.07;;;20.30;45.00;;;;;;5059148;27;92073;-63
2022/01/15 02:33:19;;;;;;;6.33;4.90;;;20.30;45.10;;;;;;5060466;27;88794;-63
2022/01/15 02:35:48;;;;;;;8.83;4.57;;;20.30;45.00;;;;;;5057801;27;88487;-63
2022/01/15 02:38:16;;;;;;;7.30;4.57;;;20.30;45.00;;;;;;5043928;27;88507;-63
2022/01/15 02:40:44;;;;;;;8.13;4.83;;;20.30;45.00;;;;;;5056366;27;90242;-63
2022/01/15 02:43:15;;;;;;;8.37;5.03;;;20.20;44.90;;;;;;5048854;27;89997;-63
2022/01/15 02:45:45;;;;;;;9.70;5.30;;;20.30;45.00;;;;;;5055473;27;88483;-63
2022/01/15 02:48:14;;;;;;;7.07;5.10;;;20.20;44.90;;;;;;5041756;27;88686;-64
2022/01/15 02:50:43;;;;;;;6.07;4.33;;;20.20;44.90;;;;;;5040594;27;90809;-64
2022/01/15 02:53:12;;;;;;;6.40;4.33;;;20.20;44.90;;;;;;5051558;27;89037;-64
2022/01/15 02:55:41;;;;;;;6.77;4.30;;;20.20;44.90;;;;;;5047973;27;88516;-64
2022/01/15 02:58:09;;;;;;;7.37;4.20;;;20.20;44.90;;;;;;5061087;27;88640;-64
2022/01/15 03:00:37;;;;;;;7.67;5.00;;;20.20;44.90;;;;;;5059382;27;90600;-64
2022/01/15 03:03:06;;;;;;;6.83;4.27;;;20.20;44.90;;;;;;5058883;27;90029;-61
2022/01/15 03:05:34;;;;;;;6.97;4.37;;;20.20;44.90;;;;;;5049530;27;88473;-62
2022/01/15 03:08:02;;;;;;;7.67;4.50;;;20.20;44.90;;;;;;5059226;27;88632;-62
2022/01/15 03:10:31;;;;;;;7.40;4.70;;;20.10;44.80;;;;;;5057693;27;90583;-62
2022/01/15 03:13:01;;;;;;;7.23;4.53;;;20.10;44.80;;;;;;5052126;27;88852;-62
2022/01/15 03:15:29;;;;;;;7.47;4.30;;;20.10;45.40;;;;;;5060847;27;88607;-65
2022/01/15 03:17:57;;;;;;;5.77;3.63;;;20.10;44.80;;;;;;5059938;27;89174;-62
2022/01/15 03:20:25;;;;;;;7.83;4.73;;;20.10;44.80;;;;;;5046526;27;89841;-62
2022/01/15 03:22:53;;;;;;;6.50;4.53;;;20.10;44.80;;;;;;5044964;27;90183;-62
2022/01/15 03:25:21;;;;;;;7.10;4.63;;;20.10;44.80;;;;;;5065063;27;88361;-62
2022/01/15 03:27:50;;;;;;;5.80;3.87;;;20.10;44.80;;;;;;5049585;27;88831;-62
2022/01/15 03:30:18;;;;;;;5.77;3.60;;;20.10;44.80;;;;;;5043157;27;89581;-62
2022/01/15 03:32:46;;;;;;;7.20;3.83;;;20.10;44.80;;;;;;5044639;27;89356;-62
2022/01/15 03:35:15;;;;;;;6.03;3.80;;;20.00;44.70;;;;;;5064016;27;88464;-62
2022/01/15 03:37:43;;;;;;;5.83;4.00;;;20.00;44.80;;;;;;5063199;27;88719;-62
2022/01/15 03:40:13;;;;;;;4.93;3.77;;;20.00;44.70;;;;;;5063196;27;90665;-62
2022/01/15 03:42:41;;;;;;;5.63;3.47;;;20.00;44.70;;;;;;5061493;27;90099;-62
2022/01/15 03:45:12;;;;;;;8.77;4.30;;;20.00;44.70;;;;;;5042990;27;88705;-61
2022/01/15 03:47:39;;;;;;;5.10;3.43;;;20.00;44.70;;;;;;5052094;27;88316;-61
2022/01/15 03:50:08;;;;;;;6.40;3.90;;;20.00;44.70;;;;;;5064037;27;90034;-62
2022/01/15 03:52:36;;;;;;;5.40;3.30;;;20.00;44.70;;;;;;5063502;27;89044;-61
2022/01/15 03:55:04;;;;;;;5.73;3.97;;;20.00;44.70;;;;;;5063354;27;88723;-62
2022/01/15 03:57:32;;;;;;;5.90;4.23;;;20.00;44.70;;;;;;5057328;27;88547;-61
2022/01/15 04:00:01;;;;;;;5.23;3.53;;;19.90;44.60;;;;;;5047308;27;89640;-61
2022/01/15 04:02:30;;;;;;;7.00;3.67;;;19.90;44.60;;;;;;5062840;27;88480;-61
2022/01/15 04:04:58;;;;;;;6.23;3.53;;;19.90;44.60;;;;;;5064022;27;88460;-61
2022/01/15 04:07:26;;;;;;;5.57;3.73;;;19.90;44.60;;;;;;5051820;27;88582;-61
2022/01/15 04:09:54;;;;;;;7.93;2.90;;;19.90;44.60;;;;;;5047506;27;91828;-63
2022/01/15 04:12:22;;;;;;;4.53;3.50;;;19.90;44.60;;;;;;5061079;27;90010;-61
2022/01/15 04:14:50;;;;;;;5.20;3.10;;;19.90;44.60;;;;;;5061870;27;88420;-61
2022/01/15 04:17:18;;;;;;;5.73;3.50;;;19.90;44.60;;;;;;5062626;27;89239;-61
2022/01/15 04:19:47;;;;;;;4.87;2.87;;;19.90;44.60;;;;;;5059804;27;90643;-61
2022/01/15 04:22:15;;;;;;;4.37;3.07;;;19.80;44.50;;;;;;5056128;27;89333;-61
2022/01/15 04:24:43;;;;;;;4.07;2.53;;;19.80;45.20;;;;;;5056280;27;88460;-61
2022/01/15 04:27:11;;;;;;;3.30;2.40;;;19.80;44.60;;;;;;5062674;27;88630;-61
2022/01/15 04:29:39;;;;;;;4.60;2.97;;;19.80;44.60;;;;;;5062091;27;90204;-61
2022/01/15 04:32:08;;;;;;;5.30;3.27;;;19.80;44.60;;;;;;5045050;27;90306;-61
2022/01/15 04:34:36;;;;;;;4.47;2.80;;;19.80;44.60;;;;;;5051297;27;89167;-61
2022/01/15 04:37:11;;;;;;;5.63;3.03;;;19.80;44.60;;;;;;5061381;27;88430;-61
2022/01/15 04:39:41;;;;;;;5.33;3.43;;;19.80;44.60;;;;;;5054291;27;91256;-62
2022/01/15 04:42:09;;;;;;;4.60;2.73;;;19.80;44.60;;;;;;5042224;27;89988;-62
2022/01/15 04:44:37;;;;;;;4.03;2.90;;;19.80;44.60;;;;;;5056523;27;88424;-62
2022/01/15 04:47:06;;;;;;;3.20;2.23;;;19.80;44.60;;;;;;5044863;27;88564;-61
2022/01/15 04:49:34;;;;;;;5.20;2.90;;;19.70;44.60;;;;;;5053260;27;89660;-61
2022/01/15 04:52:02;;;;;;;3.47;2.27;;;19.70;44.50;;;;;;5041956;27;91616;-61
2022/01/15 04:54:31;;;;;;;4.67;2.77;;;19.70;44.50;;;;;;5045310;27;88635;-61
2022/01/15 04:56:59;;;;;;;5.00;2.33;;;19.70;44.60;;;;;;5049872;27;88615;-62
2022/01/15 04:59:27;;;;;;;4.87;3.07;;;19.70;44.50;;;;;;5045784;27;90836;-61
2022/01/15 05:01:55;;;;;;;4.47;2.53;;;19.70;44.60;;;;;;5052035;27;89933;-61
2022/01/15 05:04:24;;;;;;;3.63;2.60;;;19.70;44.60;;;;;;5049875;27;88386;-62
2022/01/15 05:06:51;;;;;;;4.27;2.77;;;19.70;44.60;;;;;;5058627;27;88267;-62
2022/01/15 05:09:19;;;;;;;2.90;2.07;;;19.60;44.50;;;;;;5047435;27;90226;-62
2022/01/15 05:11:59;;;;;;;3.10;2.23;;;19.70;44.60;;;;;;5040777;27;88920;-62
2022/01/15 05:14:27;;;;;;;2.77;2.03;;;19.70;44.60;;;;;;5050219;27;88379;-61
2022/01/15 05:16:55;;;;;;;2.50;2.10;;;19.70;44.50;;;;;;5054884;27;88566;-61
2022/01/15 05:19:23;;;;;;;4.27;2.27;;;19.70;44.60;;;;;;5061565;27;90588;-61
2022/01/15 05:21:52;;;;;;;3.43;2.43;;;19.60;44.50;;;;;;5060572;27;90023;-62
2022/01/15 05:24:25;;;;;;;3.00;2.40;;;19.60;44.60;;;;;;5057114;27;88356;-62
2022/01/15 05:26:55;;;;;;;2.93;2.30;;;19.60;44.60;;;;;;5072647;27;88526;-61
2022/01/15 05:29:23;;;;;;;3.87;2.60;;;19.60;44.60;;;;;;5054120;27;91801;-61
2022/01/15 05:31:51;;;;;;;4.10;2.40;;;19.60;44.60;;;;;;5050260;27;88759;-61
2022/01/15 05:34:19;;;;;;;3.37;2.27;;;19.60;44.60;;;;;;5051117;27;88499;-61
2022/01/15 05:36:47;;;;;;;3.90;2.10;;;19.60;44.60;;;;;;5061724;27;88085;-62
2022/01/15 05:39:14;;;;;;;2.73;2.13;;;19.60;44.60;;;;;;5061237;27;90602;-62
2022/01/15 05:41:42;;;;;;;2.90;1.90;;;19.60;44.70;;;;;;5062151;27;88899;-62
2022/01/15 05:44:12;;;;;;;3.03;2.30;;;19.60;44.60;;;;;;5052642;27;88488;-62
2022/01/15 05:46:40;;;;;;;2.87;2.07;;;19.50;44.60;;;;;;5047363;27;88590;-61
2022/01/15 05:49:08;;;;;;;2.93;1.90;;;19.60;44.70;;;;;;5056241;27;89620;-62
2022/01/15 05:51:36;;;;;;;4.97;2.27;;;19.50;44.60;;;;;;5043579;27;90522;-61
2022/01/15 05:54:04;;;;;;;4.77;2.63;;;19.50;44.70;;;;;;5042624;27;88903;-62
2022/01/15 05:56:32;;;;;;;2.77;1.93;;;19.50;44.70;;;;;;5055915;27;88519;-61
2022/01/15 05:59:00;;;;;;;2.33;1.77;;;19.50;44.70;;;;;;5060731;27;90790;-61
2022/01/15 06:01:30;;;;;;;2.57;1.93;;;19.50;44.70;;;;;;5059600;27;89458;-61
2022/01/15 06:03:58;;;;;;;3.23;2.30;;;19.50;44.70;;;;;;5053351;27;88589;-61
2022/01/15 06:06:26;;;;;;;3.73;2.17;;;19.50;44.70;;;;;;5041402;27;88151;-64
2022/01/15 06:08:54;;;;;;;2.40;2.03;;;19.50;44.70;;;;;;5039858;28;93155;-62
2022/01/15 06:11:23;;;;;;;7.33;3.00;;;19.40;44.60;;;;;;5056824;27;90001;-62
2022/01/15 06:13:51;;;;;;;4.53;2.37;;;19.50;44.70;;;;;;5082002;27;88411;-61
2022/01/15 06:16:19;;;;;;;3.50;2.17;;;19.50;44.70;;;;;;5066432;27;88390;-61
2022/01/15 06:18:49;;;;;;;3.83;2.37;;;19.50;44.70;;;;;;5050993;27;89417;-61
2022/01/15 06:21:16;;;;;;;3.47;1.77;;;19.40;44.60;;;;;;5041681;27;92436;-61
2022/01/15 06:23:44;;;;;;;3.13;2.03;;;19.40;44.60;;;;;;5055603;27;88267;-62
2022/01/15 06:26:12;;;;;;;2.53;1.87;;;19.40;44.70;;;;;;5055513;27;88555;-61
2022/01/15 06:28:40;;;;;;;3.63;2.60;;;19.40;44.70;;;;;;5059273;27;91095;-61
2022/01/15 06:31:08;;;;;;;2.47;1.50;;;19.40;44.70;;;;;;5042483;27;89134;-62
2022/01/15 06:33:37;;;;;;;3.93;1.97;;;19.40;44.70;;;;;;5043076;27;88587;-61
2022/01/15 06:36:06;;;;;;;4.63;2.77;;;19.40;44.70;;;;;;5040093;27;88486;-62
2022/01/15 06:38:34;;;;;;;3.33;2.20;;;19.40;44.80;;;;;;5045611;27;89945;-62
2022/01/15 06:41:02;;;;;;;4.07;2.20;;;19.40;44.80;;;;;;5053196;27;89203;-62
2022/01/15 06:43:30;;;;;;;2.30;1.77;;;19.40;44.80;;;;;;5059997;27;88585;-61
2022/01/15 06:45:58;;;;;;;2.47;2.10;;;19.40;44.80;;;;;;5061230;27;88492;-62
2022/01/15 06:48:28;;;;;;;4.73;2.13;;;19.30;44.80;;;;;;5041700;27;90775;-61
2022/01/15 06:50:56;;;;;;;4.77;2.77;;;19.40;44.80;;;;;;5041656;27;89517;-61
2022/01/15 06:53:25;;;;;;;2.73;2.00;;;19.40;44.80;;;;;;5041044;27;88280;-61
2022/01/15 06:55:53;;;;;;;3.93;2.00;;;19.30;44.80;;;;;;5045975;27;89711;-62
2022/01/15 06:58:25;;;;;;;3.60;2.20;;;19.30;44.80;;;;;;5049324;27;90559;-62
2022/01/15 07:00:53;;;;;;;3.83;1.90;;;19.30;44.80;;;;;;5057441;27;89976;-61
2022/01/15 07:03:21;;;;;;;3.63;2.43;;;19.30;44.90;;;;;;5044176;27;88187;-61
2022/01/15 07:05:49;;;;;;;4.63;2.73;;;19.30;44.90;;;;;;5043998;27;88608;-61
2022/01/15 07:08:17;;;;;;;3.83;2.50;;;19.30;44.90;;;;;;5049603;27;89356;-62
2022/01/15 07:10:47;;;;;;;4.00;2.80;;;19.30;44.90;;;;;;5044242;27;90361;-62
2022/01/15 07:13:14;;;;;;;3.40;2.10;;;19.30;44.90;;;;;;5044972;27;89214;-61
2022/01/15 07:15:42;;;;;;;3.20;2.17;;;19.30;44.90;;;;;;5049940;27;90079;-61
2022/01/15 07:18:10;;;;;;;2.90;2.10;;;19.30;44.90;;;;;;5043539;27;89455;-61
2022/01/15 07:20:39;;;;;;;4.23;2.80;;;19.30;44.90;;;;;;5043556;27;89123;-61
2022/01/15 07:23:07;;;;;;;4.23;2.03;;;19.30;44.90;;;;;;5043641;27;88432;-62
2022/01/15 07:25:35;;;;;;;3.50;2.50;;;19.20;44.80;;;;;;5043378;28;88464;-62
2022/01/15 07:28:05;;;;;;;3.80;2.57;;;19.30;44.90;;;;;;5056916;27;90714;-61
2022/01/15 07:30:33;;;;;;;3.40;2.60;;;19.30;44.90;;;;;;5076347;27;93491;-61
2022/01/15 07:33:01;;;;;;;4.40;2.30;;;19.30;44.90;;;;;;5056337;27;88592;-61
2022/01/15 07:35:29;;;;;;;3.20;2.37;;;19.20;44.80;;;;;;5053373;27;88346;-61
2022/01/15 07:37:57;;;;;;;3.30;2.17;;;19.20;44.80;;;;;;5042807;27;90712;-62
2022/01/15 07:40:31;;;;;;;4.03;2.23;;;19.20;44.90;;;;;;5042532;27;90104;-61
2022/01/15 07:42:59;;;;;;;3.10;2.10;;;19.20;44.90;;;;;;5043380;27;88247;-62
2022/01/15 07:45:29;;;;;;;4.60;2.53;;;19.20;44.90;;;;;;5043299;28;88510;-61
2022/01/15 07:47:57;;;;;;;3.83;2.40;;;19.20;44.90;;;;;;5043260;28;90603;-61
2022/01/15 07:50:25;;;;;;;4.43;2.70;;;19.20;45.00;;;;;;5042017;27;89413;-62
2022/01/15 07:52:53;;;;;;;3.17;2.37;;;19.20;45.00;;;;;;5043482;27;88381;-61
2022/01/15 07:55:21;;;;;;;3.97;2.53;;;19.20;45.00;;;;;;5042373;27;88662;-61
2022/01/15 07:58:01;;;;;;;3.57;2.10;;;19.20;45.00;;;;;;5043537;27;88395;-61
2022/01/15 08:00:31;;;;;;;4.57;2.60;;;19.20;45.00;;;;;;5042582;28;90307;-61
2022/01/15 08:02:59;;;;;;;3.37;2.80;;;19.20;45.00;;;;;;5042870;27;88457;-61
2022/01/15 08:05:28;;;;;;;3.90;2.83;;;19.10;44.90;;;;;;5048361;27;88677;-61
2022/01/15 08:07:56;;;;;;;3.40;2.20;;;19.10;44.90;;;;;;5043680;27;89502;-62
2022/01/15 08:10:24;;;;;;;3.50;2.90;;;19.10;44.90;;;;;;5043703;27;89097;-62
2022/01/15 08:12:52;;;;;;;4.83;3.17;;;19.10;44.90;;;;;;5059041;27;88472;-61
2022/01/15 08:15:21;;;;;;;4.17;2.30;;;19.10;44.90;;;;;;5055657;27;88434;-61
2022/01/15 08:17:50;;;;;;;3.93;2.20;;;19.10;44.90;;;;;;5059334;27;89774;-63
2022/01/15 08:20:18;;;;;;;4.63;3.17;;;19.10;44.90;;;;;;5062137;27;88812;-63
2022/01/15 08:22:46;;;;;;;4.90;2.53;;;19.10;44.90;;;;;;5063467;27;88333;-61
2022/01/15 08:25:16;;;;;;;3.87;2.40;;;19.10;44.90;;;;;;5060999;27;88760;-63
2022/01/15 08:27:44;;;;;;;3.93;2.53;;;19.10;44.90;;;;;;5062616;27;90596;-63
2022/01/15 08:30:12;;;;;;;2.50;2.30;;;19.10;44.90;;;;;;5046089;27;90438;-64
2022/01/15 08:32:41;;;;;;;3.80;2.60;;;19.10;44.90;;;;;;5063222;27;88313;-64
2022/01/15 08:35:10;;;;;;;4.73;2.73;;;19.10;44.90;;;;;;5061905;27;88370;-63
2022/01/15 08:37:38;;;;;;;5.13;2.93;;;19.10;44.90;;;;;;5062902;27;89440;-63
2022/01/15 08:40:07;;;;;;;4.27;2.50;;;19.10;44.90;;;;;;5052287;27;89642;-63
2022/01/15 08:42:36;;;;;;;3.80;2.60;;;19.10;44.90;;;;;;5052738;27;88271;-63
2022/01/15 08:45:05;;;;;;;5.07;2.80;;;19.10;45.60;;;;;;5059878;27;88668;-63
2022/01/15 08:47:33;;;;;;;4.90;2.67;;;19.00;44.80;;;;;;5055221;27;89326;-63
2022/01/15 08:50:01;;;;;;;4.23;2.80;;;19.10;44.90;;;;;;5041511;27;89928;-63
2022/01/15 08:52:30;;;;;;;6.13;2.90;;;19.10;44.90;;;;;;5042413;27;88246;-63
2022/01/15 08:54:58;;;;;;;4.87;2.67;;;19.00;44.80;;;;;;5043269;27;88467;-63
2022/01/15 08:57:26;;;;;;;4.53;2.80;;;19.00;44.90;;;;;;5043097;27;90065;-63
2022/01/15 08:59:54;;;;;;;5.17;3.30;;;19.00;44.90;;;;;;5041865;27;90003;-63
2022/01/15 09:02:22;;;;;;;5.27;2.80;;;19.00;44.90;;;;;;5062392;27;88440;-63
2022/01/15 09:04:50;;;;;;;3.43;2.87;;;19.00;45.00;;;;;;5048677;27;88218;-63
2022/01/15 09:07:18;;;;;;;4.83;3.10;;;19.00;45.60;;;;;;5042063;28;90608;-62
2022/01/15 09:09:48;;;;;;;5.30;2.73;;;19.00;45.00;;;;;;5041415;27;89358;-62
2022/01/15 09:12:17;;;;;;;3.77;2.87;;;19.00;45.00;;;;;;5062183;27;88474;-63
2022/01/15 09:14:45;;;;;;;4.10;2.60;;;19.00;45.00;;;;;;5041221;27;88340;-63
2022/01/15 09:17:13;;;;;;;3.57;2.70;;;18.90;44.80;;;;;;5057567;27;89479;-63
2022/01/15 09:19:41;;;;;;;5.40;3.47;;;18.90;44.90;;;;;;5059715;27;92918;-64
2022/01/15 09:22:11;;;;;;;3.97;2.57;;;19.00;45.00;;;;;;5041943;27;88263;-63
2022/01/15 09:24:39;;;;;;;4.70;3.23;;;18.90;44.90;;;;;;5043653;27;88626;-63
2022/01/15 09:32:37;;;;;;;4.50;3.00;;;18.90;44.90;;;;;;5045892;27;88349;-63
2022/01/15 09:35:06;;;;;;;3.70;2.70;;;18.90;44.90;;;;;;5045121;27;88517;-63
2022/01/15 09:37:34;;;;;;;5.10;3.03;;;18.90;44.90;;;;;;5041978;28;88345;-63
2022/01/15 09:40:02;;;;;;;5.20;3.03;;;18.90;44.90;;;;;;5048665;27;90228;-63
2022/01/15 09:42:31;;;;;;;4.83;2.80;;;18.90;44.90;;;;;;5061794;27;88566;-63
2022/01/15 09:44:59;;;;;;;4.30;2.87;;;18.90;44.90;;;;;;5046853;27;88405;-63
2022/01/15 09:47:27;;;;;;;6.60;3.07;;;18.90;44.90;;;;;;5041120;27;90554;-63
2022/01/15 09:49:56;;;;;;;5.23;3.63;;;18.30;44.40;;;;;;5046202;27;89714;-63
2022/01/15 09:52:24;;;;;;;7.23;3.37;;;18.90;44.90;;;;;;5041406;27;88638;-63
2022/01/15 09:54:53;;;;;;;5.10;3.37;;;18.90;44.90;;;;;;5040431;27;88605;-63
2022/01/15 09:57:21;;;;;;;6.63;3.50;;;18.90;44.90;;;;;;5052633;27;91151;-63
2022/01/15 09:59:50;;;;;;;4.23;3.47;;;18.90;44.90;;;;;;5058066;27;88732;-63
2022/01/15 10:02:18;;;;;;;4.60;2.77;;;18.90;44.90;;;;;;5062053;27;88426;-62
2022/01/15 10:04:46;;;;;;;5.50;2.90;;;18.90;45.00;;;;;;5048913;27;88488;-62
2022/01/15 10:07:15;;;;;;;5.20;3.63;;;18.90;44.90;;;;;;5061704;27;90227;-62
2022/01/15 10:09:43;;;;;;;5.87;3.03;;;18.80;44.90;;;;;;5044587;27;90031;-63
2022/01/15 10:12:12;;;;;;;4.87;3.37;;;18.90;45.00;;;;;;5040879;27;88375;-63
2022/01/15 10:14:41;;;;;;;4.03;3.27;;;18.80;44.90;;;;;;5040999;27;88530;-63
2022/01/15 10:17:24;;;;;;;4.07;3.13;;;18.80;44.90;;;;;;5040703;27;89501;-63
2022/01/15 10:19:52;;;;;;;7.30;3.20;;;18.80;44.90;;;;;;5046503;27;89924;-63
2022/01/15 10:22:21;;;;;;;4.97;2.93;;;18.80;44.90;;;;;;5049909;27;88442;-63
2022/01/15 10:24:55;;;;;;;4.80;3.13;;;18.80;44.90;;;;;;5049761;27;88507;-63
2022/01/15 10:27:26;;;;;;;5.07;2.77;;;18.80;44.90;;;;;;5044580;27;92266;-62
2022/01/15 10:29:56;;;;;;;4.73;2.80;;;18.80;44.90;;;;;;5043926;27;89316;-63
2022/01/15 10:32:26;;;;;;;5.00;2.60;;;18.80;45.00;;;;;;5040520;27;88400;-62
2022/01/15 10:34:54;;;;;;;4.67;3.07;;;18.80;45.00;;;;;;5039864;27;88416;-63
2022/01/15 10:37:23;;;;;;;5.13;3.30;;;18.80;45.60;;;;;;5053201;27;94128;-62
2022/01/15 10:39:56;;;;;;;5.67;3.13;;;18.80;45.00;;;;;;5057188;27;89965;-62
2022/01/15 10:42:24;;;;;;;4.03;3.33;;;18.80;45.00;;;;;;5055580;27;88199;-62
2022/01/15 10:44:52;;;;;;;5.10;3.43;;;18.80;45.00;;;;;;5060462;27;88319;-64
2022/01/15 10:47:21;;;;;;;5.13;3.07;;;18.80;45.60;;;;;;5059578;27;90142;-63
2022/01/15 10:49:51;;;;;;;3.60;2.53;;;18.80;45.00;;;;;;5059004;27;88740;-63
2022/01/15 10:52:19;;;;;;;3.83;2.90;;;18.80;45.00;;;;;;5060907;27;88220;-63
2022/01/15 10:54:57;;;;;;;4.50;2.47;;;18.80;45.00;;;;;;5046259;27;88597;-63
2022/01/15 10:57:26;;;;;;;3.87;2.87;;;18.80;45.00;;;;;;5058982;27;89152;-63
2022/01/15 10:59:56;;;;;;;5.13;3.00;;;18.80;45.00;;;;;;5059972;27;88386;-63
2022/01/15 11:02:24;;;;;;;5.27;3.13;;;18.80;45.00;;;;;;5060691;27;88389;-63
2022/01/15 11:04:53;;;;;;;3.30;2.63;;;18.80;45.00;;;;;;5042100;27;88644;-63
2022/01/15 11:07:21;;;;;;;4.17;2.63;;;18.80;45.00;;;;;;5040388;28;90740;-63
2022/01/15 11:09:50;;;;;;;4.23;2.67;;;18.80;45.60;;;;;;5049779;27;91532;-63
2022/01/15 11:12:19;;;;;;;6.10;3.07;;;18.70;44.90;;;;;;5044587;27;88578;-63
2022/01/15 11:14:47;;;;;;;4.27;3.00;;;18.70;44.90;;;;;;5058128;27;89528;-63
2022/01/15 11:17:15;;;;;;;4.40;3.17;;;18.70;44.90;;;;;;5054960;27;89551;-63
2022/01/15 11:19:43;;;;;;;3.10;2.80;;;18.70;45.00;;;;;;5053613;27;89504;-62
2022/01/15 11:22:13;;;;;;;7.07;3.33;;;18.70;45.00;;;;;;5060849;27;88859;-63
2022/01/15 11:24:41;;;;;;;4.10;3.03;;;18.70;45.60;;;;;;5058860;27;88600;-64
2022/01/15 11:27:10;;;;;;;6.57;3.00;;;18.70;45.00;;;;;;5060242;27;91118;-63
2022/01/15 11:29:38;;;;;;;4.90;3.17;;;18.70;45.00;;;;;;5051801;27;89085;-63
2022/01/15 11:32:06;;;;;;;5.30;3.57;;;18.70;44.90;;;;;;5047009;27;88365;-63
2022/01/15 11:34:34;;;;;;;5.33;2.73;;;18.70;45.00;;;;;;5059960;27;88475;-62
2022/01/15 11:37:16;;;;;;;3.97;2.70;;;18.70;44.90;;;;;;5058543;27;89532;-63
2022/01/15 11:39:45;;;;;;;5.57;2.60;;;18.70;45.00;;;;;;5053040;27;89252;-62
2022/01/15 11:42:25;;;;;;;3.57;3.10;;;18.70;45.00;;;;;;5060724;27;88535;-63
2022/01/15 11:44:53;;;;;;;4.57;3.33;;;18.90;45.20;;;;;;5059339;27;88527;-63
2022/01/15 11:47:23;;;;;;;4.43;2.87;;;18.70;45.00;;;;;;5057687;27;89990;-63
2022/01/15 11:49:52;;;;;;;3.67;2.50;;;18.70;45.00;;;;;;5062287;27;89993;-63
2022/01/15 11:52:34;;;;;;;5.60;2.67;;;18.70;45.00;;;;;;5063239;27;88393;-63
2022/01/15 11:55:24;;;;;;;4.73;2.60;;;18.70;45.10;;;;;;5060008;27;89999;-63
2022/01/15 11:57:54;;;;;;;4.50;2.87;;;18.70;45.10;;;;;;5053407;27;90581;-63
2022/01/15 12:00:24;;;;;;;3.20;2.63;;;18.70;45.10;;;;;;5058125;27;89275;-63
2022/01/15 12:03:06;;;;;;;4.17;2.73;;;18.70;45.00;;;;;;5054766;27;88537;-63
2022/01/15 12:05:35;;;;;;;4.80;2.83;;;18.60;45.10;;;;;;5053382;27;90272;-63
2022/01/15 12:08:32;;;;;;;4.10;2.77;;;18.70;45.00;;;;;;5052372;27;90687;-63
2022/01/15 12:11:07;;;;;;;3.67;2.53;;;18.60;45.00;;;;;;5049389;27;89447;-63
2022/01/15 12:13:51;;;;;;;3.80;2.77;;;18.70;45.00;;;;;;5064028;27;88258;-63
2022/01/15 12:16:36;;;;;;;3.70;2.87;;;18.60;45.00;;;;;;5050652;27;88590;-63
2022/01/15 12:19:04;;;;;;;4.40;2.80;;;18.60;45.00;;;;;;5050890;27;90583;-62
2022/01/15 12:21:46;;;;;;;4.73;3.00;;;18.60;45.00;;;;;;5048637;27;88955;-63
2022/01/15 12:24:50;;;;;;;3.37;2.60;;;18.60;45.60;;;;;;5043953;27;88384;-62
2022/01/15 12:27:20;;;;;;;3.90;2.53;;;18.60;45.00;;;;;;5059133;27;88675;-63
2022/01/15 12:29:48;;;;;;;3.63;2.70;;;18.60;45.00;;;;;;5056572;27;88481;-63
2022/01/15 12:32:30;;;;;;;3.30;2.70;;;18.60;45.00;;;;;;5060015;27;89083;-63
2022/01/15 12:34:58;;;;;;;4.70;3.20;;;18.60;45.10;;;;;;5045452;27;88247;-63
2022/01/15 12:37:26;;;;;;;5.03;3.23;;;18.60;45.00;;;;;;5052178;27;88701;-63
2022/01/15 12:39:54;;;;;;;5.70;2.93;;;18.60;45.00;;;;;;5053907;27;89631;-63
2022/01/15 12:42:28;;;;;;;4.80;2.63;;;18.60;45.10;;;;;;5062103;27;89012;-64
2022/01/15 12:44:56;;;;;;;3.93;2.63;;;18.60;45.10;;;;;;5052837;27;88213;-63
2022/01/15 12:47:24;;;;;;;3.50;2.70;;;18.60;45.00;;;;;;5053519;27;88548;-63
2022/01/15 12:49:54;;;;;;;5.40;2.77;;;18.60;45.10;;;;;;5047502;27;90695;-62
2022/01/15 12:52:24;;;;;;;5.13;3.27;;;18.60;45.10;;;;;;5048961;27;90106;-63
2022/01/15 12:54:52;;;;;;;3.50;2.43;;;18.60;45.10;;;;;;5042685;27;88638;-63
2022/01/15 12:57:42;;;;;;;4.27;3.27;;;18.60;45.10;;;;;;5053535;27;88693;-63
2022/01/15 13:00:12;;;;;;;3.83;2.83;;;18.50;45.10;;;;;;5052875;27;90495;-63
2022/01/15 13:02:40;;;;;;;5.17;3.37;;;18.60;45.10;;;;;;5055192;27;91413;-62
2022/01/15 13:05:11;;;;;;;5.17;3.23;;;18.60;45.10;;;;;;5055711;27;88469;-63
2022/01/15 13:07:53;;;;;;;5.67;2.83;;;18.60;45.20;;;;;;5052492;27;88599;-63
2022/01/15 13:10:35;;;;;;;3.60;2.83;;;18.50;45.10;;;;;;5053934;27;89706;-63
2022/01/15 13:13:04;;;;;;;6.10;3.23;;;18.50;45.10;;;;;;5041713;27;90331;-63
2022/01/15 13:15:32;;;;;;;4.53;2.77;;;18.60;45.10;;;;;;5057880;27;88400;-62
2022/01/15 13:18:00;;;;;;;4.50;3.30;;;18.60;45.10;;;;;;5054749;27;88502;-63